LST weather

Launceston Airport
Launceston, Tasmania, Australia

Public forecast

Using degrees Celsius for public forecast. Weather courtesy of forecast.io.

METAR (pilot weather report)

Retrieved 2018/08/15 05:34 UTC (19 minutes ago):

YMLT 150534Z AUTO 30021G33KT 9999 // SCT083 BKN115 09/01 Q0993

TAF (pilot weather forecast)

Forecast is more than 12 hours old.

Retrieved 2018/08/14 00:36 UTC (1 day ago):

TAF YMLT 142313Z 1500/1524 32025G45KT 9999 -SHRA SCT030 FM150100 30020G35KT 9999 -SHRA SCT030 FM150600 32015G25KT 9999 -SHRA SCT035 FM151400 34015KT 9999 SCT025